Terminal Aerodrome Forecast
Issued by NWS

Home | Current Version | Previous Version | Text Only | Print | Product List | Glossary On
Versions: 1 2 3 4 5 6 7 8 9 10 11 12 13 14 15 16 17 18 19 20 21 22 23 24 25 26 27 28 29
000
FTUS41 KBUF 030712 AAB
TAFIAG
TAF AMD
KIAG 030712Z 0307/0406 22012KT P6SM VCSH SCT040 BKN080
     FM031000 23014G24KT P6SM VCTS SCT025 OVC050CB
     FM031400 23018G26KT P6SM VCSH SCT025 BKN040
     FM032000 23014G20KT P6SM BKN040
     FM040100 24010KT P6SM SCT060=

USA.gov is the U.S. government's official web portal to all federal, state and local government web resources and services.